Time;durP1;ratioP1;P1;durP2;ratioP2;P2;SDS_P1;SDS_P2;PMS_P1;PMS_P2;Temp;Humidity;BMP_temperature;BMP_pressure;BME280_temperature;BME280_humidity;BME280_pressure;Samples;Min_cycle;Max_cycle;Signal;HPM_P1;HPM_P2
2023/05/15 00:00:12;;;;;;;18.48;10.60;;;;;;;14.70;68.55;101755.13;4988746;28;20042;-83
2023/05/15 00:02:40;;;;;;;17.98;11.25;;;;;;;14.78;68.20;101742.97;4991627;28;20034;-80
2023/05/15 00:05:07;;;;;;;17.45;10.52;;;;;;;14.88;67.40;101734.31;4987362;28;20082;-79
2023/05/15 00:07:32;;;;;;;16.60;11.23;;;;;;;14.75;68.27;101728.97;4996635;28;20085;-81
2023/05/15 00:09:57;;;;;;;16.85;10.30;;;;;;;14.84;67.42;101724.66;4989595;28;20479;-81
2023/05/15 00:12:23;;;;;;;17.38;11.02;;;;;;;14.83;67.36;101716.78;4992317;28;20080;-80
2023/05/15 00:14:48;;;;;;;17.45;11.15;;;;;;;14.57;68.75;101712.16;4984992;28;20058;-80
2023/05/15 00:17:13;;;;;;;18.30;10.98;;;;;;;14.72;67.66;101706.19;4987935;28;20037;-81
2023/05/15 00:19:44;;;;;;;18.83;11.35;;;;;;;14.53;68.44;101707.72;4989097;28;20050;-79
2023/05/15 00:22:10;;;;;;;17.45;11.40;;;;;;;14.63;68.26;101705.22;4997908;28;20029;-83
2023/05/15 00:24:38;;;;;;;16.67;11.02;;;;;;;14.70;67.47;101701.78;5004824;28;20031;-82
2023/05/15 00:27:04;;;;;;;19.60;11.68;;;;;;;14.56;67.87;101704.28;4997827;28;20046;-79
2023/05/15 00:29:29;;;;;;;22.77;12.30;;;;;;;14.40;68.71;101715.44;4989176;28;20041;-80
2023/05/15 00:31:58;;;;;;;19.08;11.52;;;;;;;14.57;67.88;101706.91;4984250;28;20095;-79
2023/05/15 00:34:23;;;;;;;20.95;12.05;;;;;;;14.53;67.88;101699.88;4993915;28;20102;-79
2023/05/15 00:36:48;;;;;;;18.80;11.68;;;;;;;14.59;67.51;101704.28;4985048;28;20034;-81
2023/05/15 00:39:14;;;;;;;20.58;12.55;;;;;;;14.44;67.88;101707.66;4995043;28;20073;-80
2023/05/15 00:41:42;;;;;;;18.52;11.73;;;;;;;14.38;67.87;101701.47;4989075;28;20026;-80
2023/05/15 00:44:08;;;;;;;19.92;12.90;;;;;;;14.29;68.32;101702.19;4985256;28;20053;-80
2023/05/15 00:46:45;;;;;;;23.23;13.15;;;;;;;14.31;68.67;101703.09;4989472;28;20058;-79
2023/05/15 00:49:20;;;;;;;23.50;14.35;;;;;;;14.18;68.99;101712.56;4983108;28;20565;-80
2023/05/15 00:51:45;;;;;;;24.10;15.50;;;;;;;14.36;68.64;101708.38;4982704;28;20034;-82
2023/05/15 00:54:11;;;;;;;26.48;15.50;;;;;;;14.46;67.98;101705.91;4985416;28;20035;-81
2023/05/15 00:56:36;;;;;;;21.85;13.85;;;;;;;14.47;67.26;101706.78;4991005;28;20054;-80
2023/05/15 00:59:03;;;;;;;22.88;15.27;;;;;;;14.38;67.60;101704.97;4983156;28;20030;-79
2023/05/15 01:01:33;;;;;;;23.70;15.07;;;;;;;14.42;67.17;101698.00;4988050;28;20061;-80
2023/05/15 01:03:59;;;;;;;28.48;17.48;;;;;;;14.21;68.18;101701.22;4985415;28;20098;-81
2023/05/15 01:06:24;;;;;;;26.85;15.70;;;;;;;14.37;67.58;101694.41;4989182;28;20061;-79
2023/05/15 01:08:52;;;;;;;27.23;16.83;;;;;;;14.32;67.53;101691.75;4983100;28;20034;-80
2023/05/15 01:11:26;;;;;;;27.33;17.15;;;;;;;14.19;68.80;101701.22;4986589;28;20045;-80
2023/05/15 01:13:57;;;;;;;30.20;16.92;;;;;;;14.17;69.00;101702.94;4979825;28;20038;-82
2023/05/15 01:16:22;;;;;;;23.70;15.70;;;;;;;14.33;68.40;101697.88;4985029;28;20037;-81
2023/05/15 01:18:48;;;;;;;25.27;15.68;;;;;;;14.36;67.97;101696.16;4976866;28;20034;-81
2023/05/15 01:21:23;;;;;;;24.63;14.73;;;;;;;14.36;67.00;101688.28;4986604;28;20495;-81
2023/05/15 01:23:49;;;;;;;24.55;14.27;;;;;;;14.33;67.22;101690.88;4984101;28;20035;-80
2023/05/15 01:26:35;;;;;;;23.95;14.45;;;;;;;14.27;67.07;101682.94;4988572;28;20034;-81
2023/05/15 01:29:07;;;;;;;25.85;15.80;;;;;;;14.04;67.86;101687.91;4980019;28;20038;-80
2023/05/15 01:31:37;;;;;;;25.25;15.48;;;;;;;14.04;68.32;101684.41;4983583;28;20034;-80
2023/05/15 01:34:07;;;;;;;22.15;14.10;;;;;;;14.13;67.58;101680.16;4978685;28;20121;-82
2023/05/15 01:36:41;;;;;;;23.35;14.43;;;;;;;14.10;67.74;101684.47;4984214;28;20030;-80
2023/05/15 01:39:09;;;;;;;22.80;13.95;;;;;;;14.12;66.88;101681.03;4983428;28;20536;-81
2023/05/15 01:41:44;;;;;;;23.73;13.80;;;;;;;14.10;67.13;101682.72;4985129;28;20065;-81
2023/05/15 01:44:27;;;;;;;;;;;;;;;14.02;67.28;101673.91;4986370;28;20068;-80
2023/05/15 01:46:57;;;;;;;22.17;13.55;;;;;;;13.99;67.06;101688.72;4993771;28;19914;-84
2023/05/15 01:49:25;;;;;;;23.13;14.05;;;;;;;13.95;67.35;101685.19;4993081;28;20034;-81
2023/05/15 01:51:58;;;;;;;22.52;12.40;;;;;;;13.96;67.06;101686.06;4982599;28;20034;-80
2023/05/15 01:54:26;;;;;;;23.38;13.95;;;;;;;13.75;68.56;101690.16;4984715;28;20093;-81
2023/05/15 01:56:53;;;;;;;25.33;14.05;;;;;;;13.73;68.95;101693.59;4981792;28;20403;-80
2023/05/15 01:59:28;;;;;;;22.10;13.05;;;;;;;13.96;67.93;101686.97;4987115;28;20040;-82
2023/05/15 02:01:55;;;;;;;20.70;12.93;;;;;;;13.93;68.28;101686.00;4980780;28;20403;-82
2023/05/15 02:04:25;;;;;;;19.05;12.52;;;;;;;13.99;67.57;101683.47;4982169;28;20030;-82
2023/05/15 02:06:52;;;;;;;24.05;13.32;;;;;;;13.86;67.93;101686.78;4983941;28;20057;-81
2023/05/15 02:09:22;;;;;;;24.35;13.68;;;;;;;13.86;68.35;101689.41;4998410;28;20349;-82
2023/05/15 02:11:47;;;;;;;28.63;14.85;;;;;;;13.78;69.05;101692.81;5004921;28;20038;-83
2023/05/15 02:14:19;;;;;;;25.20;14.55;;;;;;;13.91;68.67;101686.00;4989004;28;20451;-83
2023/05/15 02:16:45;;;;;;;24.02;14.30;;;;;;;13.89;69.26;101686.84;4988075;28;20113;-82
2023/05/15 02:19:10;;;;;;;26.83;13.75;;;;;;;13.96;68.86;101673.84;4985480;28;20094;-81
2023/05/15 02:21:38;;;;;;;25.10;13.95;;;;;;;13.98;69.15;101676.47;4990521;28;20049;-81
2023/05/15 02:24:10;;;;;;;24.02;14.23;;;;;;;14.16;68.97;101682.81;4987452;28;20117;-82
2023/05/15 02:26:39;;;;;;;24.00;14.27;;;;;;;14.07;68.74;101677.47;4997972;28;20034;-80
2023/05/15 02:29:17;;;;;;;25.80;15.02;;;;;;;14.09;68.65;101675.72;4989031;28;20056;-81
2023/05/15 02:32:03;;;;;;;21.90;14.18;;;;;;;14.15;68.17;101667.03;4992556;28;20435;-83
2023/05/15 02:34:56;;;;;;;24.42;14.20;;;;;;;14.13;67.45;101659.19;4980694;28;20042;-82
2023/05/15 02:37:27;;;;;;;20.48;13.20;;;;;;;14.07;67.35;101660.84;4987338;28;20093;-81
2023/05/15 02:39:56;;;;;;;19.67;13.07;;;;;;;14.00;66.96;101666.88;4993231;28;20034;-82
2023/05/15 02:42:22;;;;;;;21.88;13.27;;;;;;;13.93;67.20;101662.41;4992123;28;20045;-81
2023/05/15 02:44:50;;;;;;;24.77;14.05;;;;;;;13.93;66.94;101660.69;4982136;28;20042;-81
2023/05/15 02:47:20;;;;;;;23.48;14.10;;;;;;;13.91;66.97;101662.41;4987828;28;20044;-80
2023/05/15 02:49:46;;;;;;;23.00;13.88;;;;;;;13.85;67.23;101657.06;4988436;28;20492;-81
2023/05/15 02:52:11;;;;;;;24.92;14.82;;;;;;;13.82;67.04;101657.94;4988894;28;20042;-80
2023/05/15 02:54:36;;;;;;;24.35;14.57;;;;;;;13.78;66.67;101652.66;4995742;28;20027;-81
2023/05/15 02:57:02;;;;;;;25.17;15.65;;;;;;;13.68;67.57;101659.50;4987774;28;20120;-80
2023/05/15 02:59:27;;;;;;;25.17;15.00;;;;;;;13.72;67.75;101657.81;4990505;28;20049;-81
2023/05/15 03:01:53;;;;;;;23.27;14.60;;;;;;;13.76;67.41;101655.25;4985986;28;20098;-81
2023/05/15 03:04:19;;;;;;;27.10;15.10;;;;;;;13.62;68.20;101655.91;4993756;28;20035;-81
2023/05/15 03:06:44;;;;;;;25.35;14.43;;;;;;;13.72;67.55;101663.91;4992944;28;20039;-82
2023/05/15 03:09:12;;;;;;;27.75;15.43;;;;;;;13.65;69.05;101662.09;4988116;28;20037;-82
2023/05/15 03:11:47;;;;;;;28.25;15.52;;;;;;;13.77;68.13;101664.00;5001475;28;20023;-81
2023/05/15 03:14:24;;;;;;;28.15;15.88;;;;;;;13.63;69.24;101669.03;5005737;28;20031;-81
2023/05/15 03:16:50;;;;;;;26.45;15.80;;;;;;;13.74;69.23;101667.44;5003266;28;20141;-82
2023/05/15 03:19:21;;;;;;;26.58;14.73;;;;;;;13.93;68.92;101665.94;4987783;28;20034;-79
2023/05/15 03:21:46;;;;;;;29.77;16.10;;;;;;;13.71;69.79;101682.25;4995152;28;20192;-81
2023/05/15 03:24:11;;;;;;;31.23;16.52;;;;;;;13.84;70.37;101672.81;4986016;28;20114;-81
2023/05/15 03:26:39;;;;;;;29.98;16.33;;;;;;;13.87;70.01;101681.56;4986753;28;20093;-80
2023/05/15 03:29:10;;;;;;;30.77;16.90;;;;;;;14.12;69.97;101667.03;4982561;28;20034;-82
2023/05/15 03:31:36;;;;;;;29.05;16.00;;;;;;;14.36;69.35;101679.53;4982649;28;20042;-83
2023/05/15 03:34:04;;;;;;;30.45;17.48;;;;;;;13.89;70.85;101684.22;4981099;28;20403;-81
2023/05/15 03:36:30;;;;;;;30.02;17.48;;;;;;;14.21;70.04;101683.72;4986336;28;20459;-80
2023/05/15 03:38:55;;;;;;;33.28;18.50;;;;;;;14.14;70.05;101681.94;4982256;28;20034;-81
2023/05/15 03:41:21;;;;;;;34.17;18.80;;;;;;;14.09;70.37;101691.47;4984680;28;20718;-80
2023/05/15 03:43:46;;;;;;;32.33;18.98;;;;;;;13.90;70.84;101694.75;4982491;28;20456;-81
2023/05/15 03:46:14;;;;;;;33.80;19.35;;;;;;;14.10;70.38;101690.59;4986342;28;20105;-82
2023/05/15 03:48:43;;;;;;;37.30;19.80;;;;;;;14.05;69.81;101694.03;4986243;28;20566;-80
2023/05/15 03:51:08;;;;;;;35.10;20.25;;;;;;;14.19;69.59;101689.84;4981470;28;20105;-81
2023/05/15 03:53:34;;;;;;;38.53;20.33;;;;;;;14.11;69.57;101689.75;4987520;28;20125;-81
2023/05/15 03:55:59;;;;;;;36.38;20.13;;;;;;;14.21;69.33;101674.97;4983061;28;20061;-81
2023/05/15 03:58:25;;;;;;;33.20;19.30;;;;;;;14.23;68.98;101683.75;4986302;28;20061;-82
2023/05/15 04:00:53;;;;;;;34.22;20.08;;;;;;;14.08;69.77;101681.84;4982169;28;20443;-82
2023/05/15 04:03:24;;;;;;;32.05;18.35;;;;;;;14.44;68.99;101675.28;4981683;28;20058;-82
2023/05/15 04:05:50;;;;;;;32.50;18.13;;;;;;;14.72;68.16;101669.44;4983960;28;20042;-81
2023/05/15 04:08:18;;;;;;;28.30;17.25;;;;;;;14.65;68.25;101666.72;4991050;28;20603;-82
2023/05/15 04:10:44;;;;;;;28.75;17.58;;;;;;;14.52;68.21;101668.34;4988534;28;20042;-82
2023/05/15 04:13:09;;;;;;;27.58;17.33;;;;;;;14.49;69.15;101668.34;4986284;28;20042;-81
2023/05/15 04:15:35;;;;;;;29.60;16.85;;;;;;;14.50;68.94;101667.47;4987621;28;20062;-82
2023/05/15 04:18:01;;;;;;;29.60;16.90;;;;;;;14.68;68.29;101664.16;4985259;28;20039;-80
2023/05/15 04:20:32;;;;;;;25.67;15.55;;;;;;;14.70;68.46;101670.31;4984866;28;20069;-81
2023/05/15 04:22:58;;;;;;;25.55;15.98;;;;;;;14.90;68.23;101672.22;4980913;28;20058;-81
2023/05/15 04:25:24;;;;;;;25.23;15.23;;;;;;;14.88;67.46;101673.94;4984763;28;20065;-80
2023/05/15 04:27:49;;;;;;;22.95;14.73;;;;;;;14.94;67.87;101668.75;4979209;28;20034;-81
2023/05/15 04:30:15;;;;;;;25.00;14.65;;;;;;;14.90;67.85;101668.72;4986655;28;20030;-80
2023/05/15 04:32:41;;;;;;;22.15;14.35;;;;;;;15.21;67.33;101661.94;4985238;28;20089;-81
2023/05/15 04:35:09;;;;;;;26.08;16.73;;;;;;;14.99;67.64;101674.06;4979975;28;20088;-81
2023/05/15 04:37:35;;;;;;;24.55;15.55;;;;;;;15.02;67.70;101669.69;4984804;28;20026;-79
2023/05/15 04:40:00;;;;;;;24.30;16.58;;;;;;;15.01;67.61;101667.03;4981041;28;20065;-81
2023/05/15 04:42:41;;;;;;;27.35;17.05;;;;;;;15.10;67.38;101672.38;4984649;28;20082;-82
2023/05/15 04:45:08;;;;;;;23.55;15.90;;;;;;;15.09;66.90;101668.00;4981923;28;20439;-83
2023/05/15 04:47:36;;;;;;;24.90;15.95;;;;;;;15.44;66.30;101665.59;4986321;28;20085;-82
2023/05/15 04:50:08;;;;;;;22.98;15.35;;;;;;;15.63;66.08;101672.75;4983087;28;20471;-81
2023/05/15 04:52:36;;;;;;;21.90;14.60;;;;;;;15.46;65.74;101661.25;4988570;28;20569;-82
2023/05/15 04:55:01;;;;;;;22.25;13.93;;;;;;;15.21;66.27;101662.81;4982038;28;20097;-81
2023/05/15 04:57:29;;;;;;;24.45;14.70;;;;;;;15.38;66.19;101658.56;4984908;28;20030;-81
2023/05/15 04:59:55;;;;;;;22.75;15.65;;;;;;;15.67;65.79;101655.25;4986655;28;20030;-82
2023/05/15 05:02:21;;;;;;;21.42;15.07;;;;;;;15.57;65.28;101662.19;4986820;28;20042;-81
2023/05/15 05:04:49;;;;;;;21.42;15.55;;;;;;;15.28;66.04;101664.63;4986258;28;20085;-80
2023/05/15 05:07:18;;;;;;;21.50;16.13;;;;;;;15.56;65.63;101663.06;4989741;28;20049;-83
2023/05/15 05:09:44;;;;;;;20.95;15.30;;;;;;;15.53;65.62;101659.56;4993786;28;20395;-78
2023/05/15 05:12:13;;;;;;;22.42;15.90;;;;;;;15.55;65.59;101655.19;4983555;28;20022;-84
2023/05/15 05:14:40;;;;;;;22.73;15.23;;;;;;;15.44;66.27;101655.97;4993127;28;20038;-80
2023/05/15 05:17:12;;;;;;;18.45;13.25;;;;;;;15.70;65.50;101650.88;4992336;28;20051;-80
2023/05/15 05:19:38;;;;;;;19.98;14.65;;;;;;;15.83;65.44;101662.34;4991957;28;20076;-81
2023/05/15 05:22:06;;;;;;;18.77;14.13;;;;;;;15.67;65.58;101658.78;4991694;28;20086;-80
2023/05/15 05:24:34;;;;;;;19.20;13.80;;;;;;;15.70;65.97;101655.25;4993716;28;20038;-82
2023/05/15 05:27:02;;;;;;;18.20;13.00;;;;;;;15.97;65.18;101646.63;4992143;28;20033;-81
2023/05/15 05:29:29;;;;;;;17.30;12.80;;;;;;;16.14;64.10;101651.06;4994310;28;20112;-82
2023/05/15 05:31:54;;;;;;;18.58;14.15;;;;;;;16.12;64.20;101651.91;4983588;28;20122;-82
2023/05/15 05:34:20;;;;;;;18.55;13.80;;;;;;;16.07;64.64;101648.41;4989912;28;20097;-79
2023/05/15 05:36:46;;;;;;;17.88;14.10;;;;;;;16.12;64.23;101644.03;4986927;28;20038;-82
2023/05/15 05:39:11;;;;;;;17.75;13.18;;;;;;;16.46;63.97;101645.88;4982853;28;20117;-81
2023/05/15 05:41:36;;;;;;;18.90;14.10;;;;;;;16.55;63.75;101647.63;4987736;28;20121;-82
2023/05/15 05:44:02;;;;;;;19.75;14.30;;;;;;;16.41;63.92;101639.69;4982508;28;20034;-81
2023/05/15 05:46:28;;;;;;;20.73;15.25;;;;;;;16.45;63.18;101643.25;4985117;28;20503;-82
2023/05/15 05:48:53;;;;;;;20.00;15.57;;;;;;;16.44;63.29;101634.47;4981305;28;20042;-81
2023/05/15 05:51:21;;;;;;;21.27;15.32;;;;;;;16.72;63.14;101640.66;4989347;28;20042;-82
2023/05/15 05:53:47;;;;;;;22.50;15.77;;;;;;;16.29;64.24;101634.41;4985352;28;20065;-81
2023/05/15 05:56:12;;;;;;;19.65;15.18;;;;;;;16.43;63.59;101635.34;4985225;28;20475;-82
2023/05/15 05:58:38;;;;;;;24.67;16.42;;;;;;;16.48;63.32;101635.31;4984841;28;20031;-83
2023/05/15 06:01:04;;;;;;;23.92;17.55;;;;;;;16.53;63.66;101623.03;4984279;28;20115;-83
2023/05/15 06:03:33;;;;;;;24.88;16.33;;;;;;;16.80;62.34;101622.22;4995468;28;20040;-81
2023/05/15 06:05:58;;;;;;;20.95;15.45;;;;;;;16.86;62.41;101622.22;4990527;28;20030;-80
2023/05/15 06:08:23;;;;;;;19.40;15.23;;;;;;;16.63;62.29;101623.09;4990915;28;20039;-84
2023/05/15 06:10:49;;;;;;;20.25;15.55;;;;;;;16.88;62.41;101624.00;4979488;28;20042;-82
2023/05/15 06:13:14;;;;;;;20.95;14.63;;;;;;;16.92;62.37;101628.38;4984932;28;20046;-81
2023/05/15 06:15:42;;;;;;;18.08;14.45;;;;;;;17.23;61.37;101623.06;4983343;28;20045;-81
2023/05/15 06:18:08;;;;;;;21.25;15.77;;;;;;;17.28;60.71;101626.56;4981270;28;20030;-81
2023/05/15 06:20:33;;;;;;;19.92;15.65;;;;;;;17.40;60.50;101630.03;4986527;28;20049;-82
2023/05/15 06:22:58;;;;;;;20.60;15.80;;;;;;;17.57;60.15;101626.47;4981808;28;20034;-81
2023/05/15 06:25:24;;;;;;;20.42;14.48;;;;;;;17.82;59.49;101621.13;4986028;28;20108;-80
2023/05/15 06:27:49;;;;;;;23.20;17.52;;;;;;;17.47;59.08;101617.72;4980127;28;20077;-81
2023/05/15 06:30:14;;;;;;;23.90;17.83;;;;;;;17.51;60.30;101626.47;4989168;28;20074;-81
2023/05/15 06:32:43;;;;;;;20.90;16.65;;;;;;;17.61;60.38;101623.00;4992409;28;20041;-81
2023/05/15 06:35:09;;;;;;;27.73;17.55;;;;;;;17.12;60.90;101627.47;4993039;28;20034;-81
2023/05/15 06:37:40;;;;;;;26.60;17.17;;;;;;;17.12;61.85;101627.47;4990377;28;20440;-79
2023/05/15 06:40:06;;;;;;;22.13;16.70;;;;;;;17.36;61.41;101632.69;4983001;28;26665;-80
2023/05/15 06:42:34;;;;;;;20.38;16.00;;;;;;;17.35;60.60;101633.56;4982769;28;20042;-81
2023/05/15 06:45:00;;;;;;;23.80;17.50;;;;;;;17.51;61.00;101630.00;4978851;28;20061;-82
2023/05/15 06:47:25;;;;;;;24.70;18.08;;;;;;;16.89;62.18;101632.78;4989974;28;20472;-81
2023/05/15 06:49:52;;;;;;;25.83;17.90;;;;;;;16.86;62.41;101636.28;4985366;28;20506;-82
2023/05/15 06:52:19;;;;;;;27.23;18.50;;;;;;;17.27;61.71;101632.69;4992563;28;20088;-83
2023/05/15 06:54:44;;;;;;;27.23;19.13;;;;;;;17.50;60.72;101633.53;4993814;28;20050;-80
2023/05/15 06:57:10;;;;;;;24.55;17.92;;;;;;;17.49;61.64;101639.69;4989647;28;20038;-80
2023/05/15 06:59:38;;;;;;;23.77;17.85;;;;;;;17.65;61.08;101627.34;4991818;28;20034;-79
2023/05/15 07:02:06;;;;;;;22.60;17.52;;;;;;;18.07;59.41;101634.19;4993727;28;20038;-79
2023/05/15 07:04:35;;;;;;;26.35;19.30;;;;;;;17.78;59.89;101635.22;4995630;28;20105;-80
2023/05/15 07:07:00;;;;;;;25.48;19.70;;;;;;;18.04;58.99;101637.75;4997026;28;20023;-82
2023/05/15 07:09:25;;;;;;;25.33;18.55;;;;;;;18.21;58.72;101635.88;4997413;28;20038;-80
2023/05/15 07:11:51;;;;;;;23.67;18.30;;;;;;;18.55;57.35;101647.13;4993533;28;20031;-81
2023/05/15 07:14:16;;;;;;;28.05;18.92;;;;;;;18.37;57.76;101643.69;4992522;28;20473;-80
2023/05/15 07:16:42;;;;;;;24.63;17.98;;;;;;;18.30;58.57;101648.13;4990185;28;20062;-81
2023/05/15 07:19:08;;;;;;;29.48;19.20;;;;;;;17.75;59.47;101652.81;4990763;28;20035;-80
2023/05/15 07:21:33;;;;;;;26.75;19.45;;;;;;;17.68;60.31;101651.97;4989947;28;20038;-83
2023/05/15 07:23:58;;;;;;;26.00;19.35;;;;;;;17.72;60.63;101658.97;4982791;28;20037;-83
2023/05/15 07:26:24;;;;;;;26.83;19.45;;;;;;;17.37;62.25;101659.06;4986433;28;20085;-83
2023/05/15 07:28:50;;;;;;;26.80;18.42;;;;;;;17.71;61.66;101656.34;4983999;28;20038;-82
2023/05/15 07:31:15;;;;;;;29.88;20.30;;;;;;;17.18;62.84;101656.44;4986212;28;20117;-81
2023/05/15 07:33:41;;;;;;;28.35;19.00;;;;;;;17.20;63.92;101657.34;4986786;28;20062;-79
2023/05/15 07:36:06;;;;;;;27.10;17.88;;;;;;;17.43;63.16;101652.88;4982530;28;20037;-81
2023/05/15 07:38:38;;;;;;;26.50;18.60;;;;;;;17.66;61.80;101658.13;4986242;28;20046;-81
2023/05/15 07:41:03;;;;;;;24.27;17.77;;;;;;;17.69;61.75;101653.69;4984863;28;20033;-80
2023/05/15 07:43:28;;;;;;;27.58;18.42;;;;;;;17.47;62.97;101661.66;4995137;28;20403;-81
2023/05/15 07:45:54;;;;;;;25.05;18.10;;;;;;;17.35;63.32;101662.56;4982912;28;20038;-81
2023/05/15 07:48:19;;;;;;;29.73;18.33;;;;;;;17.43;63.12;101664.31;4986579;28;20105;-81
2023/05/15 07:50:46;;;;;;;27.08;18.15;;;;;;;17.39;63.85;101665.19;4990555;28;20488;-80
2023/05/15 07:53:12;;;;;;;25.38;18.30;;;;;;;17.48;63.46;101663.41;4985288;28;20054;-80
2023/05/15 07:55:43;;;;;;;26.42;18.13;;;;;;;17.58;63.16;101665.13;4991704;28;20033;-80
2023/05/15 07:58:09;;;;;;;27.15;18.27;;;;;;;17.34;63.80;101658.16;4980682;28;20361;-85
2023/05/15 08:00:35;;;;;;;30.45;19.15;;;;;;;17.20;64.02;101658.19;4985035;28;20035;-80
2023/05/15 08:03:03;;;;;;;29.27;19.23;;;;;;;17.46;62.84;101663.41;4979392;28;20061;-81
2023/05/15 08:05:28;;;;;;;31.45;20.25;;;;;;;17.50;62.76;101665.19;4985901;28;20030;-80
2023/05/15 08:07:55;;;;;;;29.75;20.02;;;;;;;17.66;61.42;101658.13;4986202;28;20050;-81
2023/05/15 08:10:23;;;;;;;34.78;21.27;;;;;;;17.39;62.54;101659.03;4985372;28;20053;-81
2023/05/15 08:12:49;;;;;;;33.00;21.92;;;;;;;17.41;63.09;101666.06;4983012;28;20034;-80
2023/05/15 08:15:15;;;;;;;38.28;21.42;;;;;;;17.20;63.37;101670.50;4999161;28;20030;-81
2023/05/15 08:17:40;;;;;;;28.80;19.63;;;;;;;17.62;62.25;101665.19;5000502;28;20391;-81
2023/05/15 08:20:06;;;;;;;31.83;19.98;;;;;;;17.96;61.20;101659.75;4989824;28;20129;-81
2023/05/15 08:22:32;;;;;;;33.17;21.42;;;;;;;17.84;61.47;101658.94;4997983;28;20030;-80
2023/05/15 08:24:58;;;;;;;34.33;21.50;;;;;;;17.29;62.73;101662.56;4993183;28;20056;-80
2023/05/15 08:27:24;;;;;;;36.55;22.35;;;;;;;17.23;63.49;101660.81;4997116;28;20040;-81
2023/05/15 08:29:53;;;;;;;34.92;21.35;;;;;;;17.30;63.16;101665.22;4976934;28;20046;-80
2023/05/15 08:32:19;;;;;;;33.17;20.85;;;;;;;17.55;62.66;101659.88;4991853;28;20045;-80
2023/05/15 08:34:44;;;;;;;36.78;21.83;;;;;;;16.97;64.44;101668.75;4991624;28;20038;-79
2023/05/15 08:37:09;;;;;;;40.45;21.80;;;;;;;17.09;64.46;101665.22;4994561;28;20462;-80
2023/05/15 08:39:35;;;;;;;38.92;22.42;;;;;;;17.33;64.26;101661.69;4997849;28;20122;-82
2023/05/15 08:42:26;;;;;;;37.45;21.55;;;;;;;17.38;63.51;101659.94;4984418;28;20502;-81
2023/05/15 08:44:52;;;;;;;44.75;23.23;;;;;;;17.47;63.25;101669.56;4974913;28;20038;-81
2023/05/15 08:47:21;;;;;;;43.50;23.23;;;;;;;17.58;63.03;101667.78;4985159;28;20034;-80
2023/05/15 08:50:14;;;;;;;42.17;23.15;;;;;;;17.57;63.85;101666.00;4981833;28;20070;-82
2023/05/15 08:52:45;;;;;;;40.10;21.95;;;;;;;17.53;64.41;101673.06;4992732;28;20404;-80
2023/05/15 08:55:12;;;;;;;39.47;21.88;;;;;;;17.59;63.71;101666.91;4984003;28;20567;-80
2023/05/15 08:57:41;;;;;;;38.70;21.45;;;;;;;17.53;63.48;101672.19;4987422;28;20128;-80
2023/05/15 09:00:13;;;;;;;39.50;21.27;;;;;;;17.35;63.94;101673.09;4984530;28;20041;-80
2023/05/15 09:02:39;;;;;;;39.97;20.58;;;;;;;17.59;63.63;101666.91;4985643;28;20034;-81
2023/05/15 09:05:08;;;;;;;38.90;22.00;;;;;;;17.06;65.05;101670.50;4996698;28;20480;-81
2023/05/15 09:07:38;;;;;;;36.03;20.27;;;;;;;17.26;64.49;101673.97;4982862;28;20034;-81
2023/05/15 09:10:05;;;;;;;37.38;21.50;;;;;;;17.73;63.58;101670.41;4977896;28;20118;-82
2023/05/15 09:12:33;;;;;;;34.80;20.25;;;;;;;17.68;63.74;101683.63;4985930;28;20130;-81
2023/05/15 09:15:34;;;;;;;32.40;18.88;;;;;;;17.76;62.72;101684.44;4980116;28;20487;-81
2023/05/15 09:18:00;;;;;;;29.33;18.52;;;;;;;18.11;61.98;101683.47;4910233;29;20534;-80
2023/05/15 09:20:34;;;;;;;29.38;18.52;;;;;;;17.96;61.82;101679.09;4974893;28;20555;-81
2023/05/15 09:23:01;;;;;;;27.23;17.58;;;;;;;18.12;61.33;101675.50;4985285;28;20126;-81
2023/05/15 09:25:41;;;;;;;30.05;18.98;;;;;;;17.91;62.24;101683.53;4984731;28;20038;-80
2023/05/15 09:28:23;;;;;;;29.10;18.65;;;;;;;18.05;61.61;101673.78;4980518;28;20050;-81
2023/05/15 09:30:49;;;;;;;30.08;18.90;;;;;;;17.64;62.49;101679.22;4978205;28;20042;-79
2023/05/15 09:33:15;;;;;;;28.30;17.98;;;;;;;17.56;62.32;101680.09;4983117;28;20053;-80
2023/05/15 09:35:44;;;;;;;24.80;16.60;;;;;;;18.16;61.37;101679.03;4982632;28;20030;-80
2023/05/15 09:38:17;;;;;;;24.17;15.40;;;;;;;18.59;59.24;101677.06;4978766;28;20078;-80
2023/05/15 09:40:43;;;;;;;23.23;15.65;;;;;;;17.91;60.03;101675.63;4981505;28;20038;-80
2023/05/15 09:43:11;;;;;;;24.00;16.60;;;;;;;17.97;60.42;101672.97;4978733;28;20046;-79
2023/05/15 09:45:39;;;;;;;23.92;16.38;;;;;;;18.15;60.34;101682.53;4982843;28;20033;-80
2023/05/15 09:48:06;;;;;;;25.30;17.20;;;;;;;17.99;60.91;101686.16;4966872;28;20034;-80
2023/05/15 09:50:36;;;;;;;27.27;16.85;;;;;;;18.02;60.41;101686.13;4979036;28;20049;-80
2023/05/15 09:53:03;;;;;;;24.85;17.40;;;;;;;17.66;62.03;101681.84;4987395;28;20046;-80
2023/05/15 09:55:32;;;;;;;24.88;17.08;;;;;;;17.74;61.44;101683.59;4993639;28;20090;-79
2023/05/15 09:58:19;;;;;;;23.70;16.38;;;;;;;17.86;61.01;101679.16;4980810;28;22663;-78
2023/05/15 10:00:46;;;;;;;25.10;15.98;;;;;;;17.73;61.31;101684.47;4984356;28;20047;-81
2023/05/15 10:03:17;;;;;;;25.20;16.80;;;;;;;17.59;61.88;101682.72;4992141;28;20030;-80
2023/05/15 10:05:43;;;;;;;23.92;15.20;;;;;;;17.92;60.43;101689.69;4981439;28;20089;-79
2023/05/15 10:08:13;;;;;;;22.80;15.68;;;;;;;17.88;61.19;101691.44;4976190;28;20414;-80
2023/05/15 10:10:48;;;;;;;24.30;16.33;;;;;;;18.20;60.50;101684.28;4980491;28;20038;-79
2023/05/15 10:13:13;;;;;;;21.35;14.75;;;;;;;18.55;59.48;101689.38;4978580;28;20034;-79
2023/05/15 10:15:39;;;;;;;19.95;14.57;;;;;;;18.46;59.36;101688.53;4981460;28;20041;-80
2023/05/15 10:18:07;;;;;;;22.98;15.77;;;;;;;18.08;60.29;101700.16;4971494;28;20491;-80
2023/05/15 10:20:34;;;;;;;22.08;14.20;;;;;;;18.64;59.19;101699.00;4979766;28;20065;-80
2023/05/15 10:23:09;;;;;;;16.70;12.13;;;;;;;18.13;59.77;101697.50;4979145;28;20030;-79
2023/05/15 10:25:43;;;;;;;15.73;9.80;;;;;;;18.33;58.89;101705.31;4983446;28;20038;-78
2023/05/15 10:28:09;;;;;;;;;;;;;;;18.51;57.57;101699.94;4980224;28;20058;-78
2023/05/15 10:30:38;;;;;;;10.57;7.25;;;;;;;18.82;56.94;101701.53;4986460;28;20548;-79
2023/05/15 10:33:10;;;;;;;12.15;6.75;;;;;;;19.08;56.33;101706.63;4982368;28;20129;-80
2023/05/15 10:35:38;;;;;;;10.10;6.25;;;;;;;18.86;56.82;101707.66;4983110;28;20038;-81
2023/05/15 10:38:10;;;;;;;7.43;5.55;;;;;;;18.53;57.35;101693.78;4983287;28;20029;-77
2023/05/15 10:40:36;;;;;;;7.68;4.85;;;;;;;19.05;56.29;101698.69;4987919;28;20042;-78
2023/05/15 10:43:10;;;;;;;6.90;4.88;;;;;;;18.98;56.74;101695.22;4982228;28;20049;-81
2023/05/15 10:45:35;;;;;;;9.52;5.18;;;;;;;18.64;57.29;101699.91;4985693;28;20072;-80
2023/05/15 10:48:06;;;;;;;7.93;4.88;;;;;;;18.80;57.27;101702.41;4980051;28;20045;-82
2023/05/15 10:50:32;;;;;;;6.70;4.78;;;;;;;18.30;58.64;101697.44;4984940;28;20039;-80
2023/05/15 10:52:57;;;;;;;7.22;4.82;;;;;;;18.63;57.55;101708.69;4978551;28;20388;-79
2023/05/15 10:55:31;;;;;;;7.95;5.20;;;;;;;18.45;59.04;101695.56;4983796;28;20050;-80
2023/05/15 10:57:57;;;;;;;8.80;4.75;;;;;;;18.45;58.79;101695.56;4980331;28;20046;-79
2023/05/15 11:00:22;;;;;;;9.05;4.95;;;;;;;18.13;59.72;101703.66;4983899;28;20038;-80
2023/05/15 11:02:49;;;;;;;6.18;4.60;;;;;;;17.94;60.14;101701.97;4978348;28;20061;-80
2023/05/15 11:05:14;;;;;;;11.43;5.53;;;;;;;17.70;61.39;101718.75;4985984;28;20042;-79
2023/05/15 11:07:43;;;;;;;15.45;6.32;;;;;;;17.84;61.35;101708.19;4986266;28;20037;-78
2023/05/15 11:10:28;;;;;;;14.10;7.25;;;;;;;17.62;61.99;101712.66;4981193;28;20172;-80
2023/05/15 11:12:58;;;;;;;15.57;8.07;;;;;;;17.39;62.18;101710.00;4980913;28;20031;-78
2023/05/15 11:15:40;;;;;;;13.77;7.20;;;;;;;17.45;61.97;101714.38;4989903;28;20106;-78